Startpagina
METAR-TAF:

METAR-TAF

Vliegvelden :

Rarotonga, Cookeilanden

breedte: 21-12S, lengte: 159-49W, hoogte: 7 m

Actueel weer

Dit bericht is 30 minuten geleden gemaakt, om 12:30 UTC
Wind 6 kt uit het oostzuidoosten, variërend tussen het oosten en het zuidzuidoosten
Temperatuur 23°C
Vochtigheid 65%
Druk 1016 hPa
Zicht 10 km of meer

METAR: NCRG 211230Z AUTO 12006KT 080V160 9999 NCD 23/16 Q1016

Tijdstip: 03:00 (13:00 UTC)

Verwachting

Dit bericht is 1 uur en het 34 minuten geleden gemaakt, om 11:26 UTC
Verwachting geldig van 21 om 12 UTC tot 22 om 12 UTC
Wind 5 kt uit het zuidoosten
Zicht 10 km of meer
Verspreide wolken op 1800 ft
Verspreide wolken op 5000 ft
Van 22 om 0900 UTC
Wind 15 kt uit het zuidoosten met uitschieters tot 25 kt
Zicht 10 km of meer
Verspreide wolken op 2000 ft
Gebroken wolken op 4500 ft

TAF: NCRG 211126Z 2112/2212 13005KT 9999 SCT018 SCT050 FM220900 13015G25KT 9999 SCT020 BKN045

Waarnemingen en weersverwachtingen van meer dan 4000 vliegvelden (METAR en TAF).

De beschikbare stations zijn de gele en rode punten op de kaart.

Ga met uw muis naar het station om de naam te zien.

Klik dan om waarnemingen en weersverwachtingen te zien.

kaart wijzigen: klik op de groene knoppen met een zwart kruis om in te zoomen, op de groene knop met een streepje om uit te zoomen of op de groene pijlen voor aangrenzende kaarten.


METAR-TAF: